PWSweather.com
Personal Weather Stations
Station Observations
WESTON01
WestonSuperMareGB BS22 8RT

WestonSuperMareGB BS22 8RT

Lat: 51.351508, Lon: -2.933373

Elevation: 15

Station Type: Fine Offset WH1080

http://www.westonweather.co.uk

High Low Average
Temperature 67.2°F19.6°C 51.2°F10.7°C 58.6°F14.8°C
Dew Point 58.4°F14.7°C 41.2°F5.1°C 47.8°F8.8°C
Winds 16.6 mph 26.7 kmh Calm Calm 7.0 mph SW11.3 kmh SW
Wind Gusts 26.2 mph42.2 kmh -- 10.0 mph16.1 kmh
Humidity 90% 51% 68%
Pressure 30.14 in1020.7 mb 29.96 in1014.6 mb -
Precipitation 0.58 in14.7 mm - -
Hour Temp Dew Point Humidity Winds Wind Gusts Pressure Precip Precip Rate Daily Precip Total
12:00 AM 58.2°F14.6°C 45.6°F7.6°C 63% 3.9 mph SW6.3 kmh SW 7.1 mph11.4 kmh 29.99 in1015.6 mb 0.00 in0.0 mm 0.00 in0.0 mm 0.00 in0.0 mm
12:05 AM 58.0°F14.4°C 45.5°F7.5°C 63% 3.9 mph SSW6.3 kmh SSW 6.5 mph10.5 kmh 29.99 in1015.6 mb 0.00 in0.0 mm 0.00 in0.0 mm 0.00 in0.0 mm
12:10 AM 57.7°F14.3°C 45.6°F7.6°C 64% 4.7 mph SSW7.6 kmh SSW 7.7 mph12.4 kmh 29.99 in1015.6 mb 0.00 in0.0 mm 0.00 in0.0 mm 0.00 in0.0 mm
12:15 AM 57.3°F14.1°C 45.2°F7.3°C 64% 4.6 mph SW7.4 kmh SW 7.7 mph12.4 kmh 29.99 in1015.6 mb 0.00 in0.0 mm 0.00 in0.0 mm 0.00 in0.0 mm
12:20 AM 56.9°F13.8°C 44.9°F7.2°C 64% 4.7 mph SSW7.6 kmh SSW 7.4 mph11.9 kmh 30.02 in1016.6 mb 0.00 in0.0 mm 0.00 in0.0 mm 0.00 in0.0 mm
12:25 AM 56.9°F13.8°C 44.9°F7.2°C 64% 5.6 mph SSW9.0 kmh SSW 7.7 mph12.4 kmh 30.02 in1016.6 mb 0.00 in0.0 mm 0.00 in0.0 mm 0.00 in0.0 mm
12:30 AM 56.2°F13.4°C 44.2°F6.8°C 64% 6.4 mph SSW10.3 kmh SSW 10.1 mph16.3 kmh 30.02 in1016.6 mb 0.00 in0.0 mm 0.00 in0.0 mm 0.00 in0.0 mm
12:35 AM 56.2°F13.4°C 44.2°F6.8°C 64% 6.5 mph SSW10.5 kmh SSW 10.1 mph16.3 kmh 29.99 in1015.6 mb 0.00 in0.0 mm 0.00 in0.0 mm 0.00 in0.0 mm
12:40 AM 55.5°F13.1°C 43.9°F6.6°C 65% 5.0 mph SSW8.0 kmh SSW 8.3 mph13.4 kmh 29.99 in1015.6 mb 0.00 in0.0 mm 0.00 in0.0 mm 0.00 in0.0 mm
12:45 AM 55.1°F12.8°C 44.0°F6.7°C 66% 4.3 mph SW6.9 kmh SW 6.2 mph10.0 kmh 29.99 in1015.6 mb 0.00 in0.0 mm 0.00 in0.0 mm 0.00 in0.0 mm
12:50 AM 55.0°F12.8°C 43.8°F6.6°C 66% 4.2 mph SSW6.8 kmh SSW 6.5 mph10.5 kmh 29.99 in1015.6 mb 0.00 in0.0 mm 0.00 in0.0 mm 0.00 in0.0 mm
12:55 AM 54.8°F12.7°C 44.0°F6.7°C 67% 4.5 mph S7.2 kmh S 6.5 mph10.5 kmh 29.99 in1015.6 mb 0.00 in0.0 mm 0.00 in0.0 mm 0.00 in0.0 mm
01:00 AM 54.6°F12.6°C 43.8°F6.6°C 67% 4.7 mph SSW7.6 kmh SSW 6.5 mph10.5 kmh 29.99 in1015.6 mb 0.00 in0.0 mm 0.00 in0.0 mm 0.00 in0.0 mm
01:05 AM 54.2°F12.3°C 43.9°F6.6°C 68% 4.1 mph SW6.6 kmh SW 6.5 mph10.5 kmh 29.99 in1015.6 mb 0.00 in0.0 mm 0.00 in0.0 mm 0.00 in0.0 mm
01:10 AM 54.0°F12.2°C 43.7°F6.5°C 68% 3.7 mph SW6.0 kmh SW 5.4 mph8.7 kmh 29.99 in1015.6 mb 0.00 in0.0 mm 0.00 in0.0 mm 0.00 in0.0 mm
01:15 AM 53.9°F12.2°C 43.9°F6.6°C 69% 4.0 mph SSW6.4 kmh SSW 5.4 mph8.7 kmh 29.99 in1015.6 mb 0.00 in0.0 mm 0.00 in0.0 mm 0.00 in0.0 mm
01:20 AM 53.7°F12.1°C 43.8°F6.6°C 69% 4.5 mph SSW7.2 kmh SSW 5.4 mph8.7 kmh 30.02 in1016.6 mb 0.00 in0.0 mm 0.00 in0.0 mm 0.00 in0.0 mm
01:25 AM 53.7°F12.1°C 44.1°F6.7°C 70% 5.0 mph SSW8.0 kmh SSW 6.2 mph10.0 kmh 30.02 in1016.6 mb 0.00 in0.0 mm 0.00 in0.0 mm 0.00 in0.0 mm
01:30 AM 53.5°F11.9°C 44.0°F6.7°C 70% 4.8 mph SW7.7 kmh SW 7.1 mph11.4 kmh 30.02 in1016.6 mb 0.00 in0.0 mm 0.00 in0.0 mm 0.00 in0.0 mm
01:35 AM 53.5°F11.9°C 44.0°F6.7°C 70% 4.5 mph SSW7.2 kmh SSW 7.1 mph11.4 kmh 29.99 in1015.6 mb 0.00 in0.0 mm 0.00 in0.0 mm 0.00 in0.0 mm
01:40 AM 53.5°F11.9°C 44.3°F6.8°C 71% 4.2 mph SSW6.8 kmh SSW 6.2 mph10.0 kmh 29.99 in1015.6 mb 0.00 in0.0 mm 0.00 in0.0 mm 0.00 in0.0 mm
01:45 AM 53.7°F12.1°C 44.5°F6.9°C 71% 4.7 mph SSW7.6 kmh SSW 7.4 mph11.9 kmh 29.99 in1015.6 mb 0.00 in0.0 mm 0.00 in0.0 mm 0.00 in0.0 mm
01:50 AM 53.7°F12.1°C 44.5°F6.9°C 71% 4.6 mph SSW7.4 kmh SSW 7.4 mph11.9 kmh 29.99 in1015.6 mb 0.00 in0.0 mm 0.00 in0.0 mm 0.00 in0.0 mm
01:55 AM 54.0°F12.2°C 45.2°F7.3°C 72% 4.5 mph SSW7.2 kmh SSW 8.0 mph12.9 kmh 29.99 in1015.6 mb 0.00 in0.0 mm 0.00 in0.0 mm 0.00 in0.0 mm
02:00 AM 54.2°F12.3°C 45.4°F7.4°C 72% 4.7 mph SSW7.6 kmh SSW 8.0 mph12.9 kmh 29.99 in1015.6 mb 0.00 in0.0 mm 0.00 in0.0 mm 0.00 in0.0 mm
02:05 AM 54.2°F12.3°C 45.4°F7.4°C 72% 4.6 mph SSW7.4 kmh SSW 5.4 mph8.7 kmh 29.99 in1015.6 mb 0.00 in0.0 mm 0.00 in0.0 mm 0.00 in0.0 mm
02:10 AM 54.2°F12.3°C 45.4°F7.4°C 72% 4.9 mph SSW7.9 kmh SSW 6.5 mph10.5 kmh 29.99 in1015.6 mb 0.00 in0.0 mm 0.00 in0.0 mm 0.00 in0.0 mm
02:15 AM 54.0°F12.2°C 45.2°F7.3°C 72% 4.9 mph S7.9 kmh S 8.0 mph12.9 kmh 29.99 in1015.6 mb 0.00 in0.0 mm 0.00 in0.0 mm 0.00 in0.0 mm
02:20 AM 53.9°F12.2°C 45.0°F7.2°C 72% 3.7 mph SSW6.0 kmh SSW 8.0 mph12.9 kmh 29.99 in1015.6 mb 0.00 in0.0 mm 0.00 in0.0 mm 0.00 in0.0 mm
02:25 AM 53.9°F12.2°C 45.0°F7.2°C 72% 3.2 mph SSW5.1 kmh SSW 4.5 mph7.2 kmh 29.99 in1015.6 mb 0.00 in0.0 mm 0.00 in0.0 mm 0.00 in0.0 mm
02:30 AM 53.7°F12.1°C 44.9°F7.2°C 72% 4.0 mph SW6.4 kmh SW 7.1 mph11.4 kmh 29.99 in1015.6 mb 0.00 in0.0 mm 0.00 in0.0 mm 0.00 in0.0 mm
02:35 AM 53.3°F11.8°C 44.5°F6.9°C 72% 3.9 mph SW6.3 kmh SW 7.1 mph11.4 kmh 30.02 in1016.6 mb 0.00 in0.0 mm 0.00 in0.0 mm 0.00 in0.0 mm
02:40 AM 53.2°F11.8°C 44.4°F6.9°C 72% 3.2 mph SW5.1 kmh SW 5.4 mph8.7 kmh 30.02 in1016.6 mb 0.00 in0.0 mm 0.00 in0.0 mm 0.00 in0.0 mm
02:45 AM 53.2°F11.8°C 44.7°F7.1°C 73% 3.9 mph SW6.3 kmh SW 6.2 mph10.0 kmh 30.02 in1016.6 mb 0.00 in0.0 mm 0.00 in0.0 mm 0.00 in0.0 mm
02:50 AM 53.0°F11.7°C 44.5°F6.9°C 73% 4.7 mph SSW7.6 kmh SSW 7.4 mph11.9 kmh 29.99 in1015.6 mb 0.00 in0.0 mm 0.00 in0.0 mm 0.00 in0.0 mm
02:55 AM 52.8°F11.6°C 44.4°F6.9°C 73% 3.7 mph SSW6.0 kmh SSW 7.4 mph11.9 kmh 29.99 in1015.6 mb 0.00 in0.0 mm 0.00 in0.0 mm 0.00 in0.0 mm
03:00 AM 52.4°F11.3°C 44.0°F6.7°C 73% 3.0 mph SSW4.8 kmh SSW 4.8 mph7.7 kmh 29.99 in1015.6 mb 0.00 in0.0 mm 0.00 in0.0 mm 0.00 in0.0 mm
03:05 AM 52.3°F11.3°C 44.2°F6.8°C 74% 3.8 mph SW6.1 kmh SW 6.2 mph10.0 kmh 29.99 in1015.6 mb 0.00 in0.0 mm 0.00 in0.0 mm 0.00 in0.0 mm
03:10 AM 52.3°F11.3°C 44.2°F6.8°C 74% 4.1 mph SW6.6 kmh SW 6.2 mph10.0 kmh 29.99 in1015.6 mb 0.00 in0.0 mm 0.00 in0.0 mm 0.00 in0.0 mm
03:15 AM 52.1°F11.2°C 44.0°F6.7°C 74% 3.3 mph SW5.3 kmh SW 5.1 mph8.2 kmh 29.99 in1015.6 mb 0.00 in0.0 mm 0.00 in0.0 mm 0.00 in0.0 mm
03:20 AM 52.3°F11.3°C 44.2°F6.8°C 74% 3.3 mph SW5.3 kmh SW 5.7 mph9.2 kmh 29.99 in1015.6 mb 0.00 in0.0 mm 0.00 in0.0 mm 0.00 in0.0 mm
03:25 AM 52.3°F11.3°C 44.6°F7.0°C 75% 3.8 mph SW6.1 kmh SW 6.5 mph10.5 kmh 29.99 in1015.6 mb 0.00 in0.0 mm 0.00 in0.0 mm 0.00 in0.0 mm
03:30 AM 52.4°F11.3°C 44.4°F6.9°C 74% 2.6 mph SW4.2 kmh SW 6.5 mph10.5 kmh 29.99 in1015.6 mb 0.00 in0.0 mm 0.00 in0.0 mm 0.00 in0.0 mm
03:35 AM 52.3°F11.3°C 44.6°F7.0°C 75% 2.8 mph SW4.5 kmh SW 6.2 mph10.0 kmh 29.99 in1015.6 mb 0.00 in0.0 mm 0.00 in0.0 mm 0.00 in0.0 mm
03:40 AM 52.1°F11.2°C 44.4°F6.9°C 75% 3.7 mph SSW6.0 kmh SSW 8.0 mph12.9 kmh 29.99 in1015.6 mb 0.00 in0.0 mm 0.00 in0.0 mm 0.00 in0.0 mm
03:45 AM 52.3°F11.3°C 44.6°F7.0°C 75% 3.8 mph SSW6.1 kmh SSW 9.5 mph15.3 kmh 29.99 in1015.6 mb 0.00 in0.0 mm 0.00 in0.0 mm 0.00 in0.0 mm
03:50 AM 52.3°F11.3°C 44.6°F7.0°C 75% 4.4 mph SSW7.1 kmh SSW 9.5 mph15.3 kmh 29.99 in1015.6 mb 0.00 in0.0 mm 0.00 in0.0 mm 0.00 in0.0 mm
03:55 AM 52.3°F11.3°C 44.6°F7.0°C 75% 3.7 mph SSW6.0 kmh SSW 5.7 mph9.2 kmh 29.99 in1015.6 mb 0.00 in0.0 mm 0.00 in0.0 mm 0.00 in0.0 mm
04:00 AM 52.1°F11.2°C 44.4°F6.9°C 75% 3.2 mph SSW5.1 kmh SSW 5.1 mph8.2 kmh 29.99 in1015.6 mb 0.00 in0.0 mm 0.00 in0.0 mm 0.00 in0.0 mm
04:05 AM 52.1°F11.2°C 44.4°F6.9°C 75% 3.5 mph SSW5.6 kmh SSW 4.5 mph7.2 kmh 29.99 in1015.6 mb 0.00 in0.0 mm 0.00 in0.0 mm 0.00 in0.0 mm
04:10 AM 51.9°F11.1°C 44.2°F6.8°C 75% 3.5 mph SW5.6 kmh SW 4.5 mph7.2 kmh 29.99 in1015.6 mb 0.00 in0.0 mm 0.00 in0.0 mm 0.00 in0.0 mm
04:15 AM 51.9°F11.1°C 44.2°F6.8°C 75% 3.1 mph SW5.0 kmh SW 4.5 mph7.2 kmh 29.99 in1015.6 mb 0.00 in0.0 mm 0.00 in0.0 mm 0.00 in0.0 mm
04:20 AM 51.7°F10.9°C 44.0°F6.7°C 75% 4.0 mph WSW6.4 kmh WSW 7.4 mph11.9 kmh 29.99 in1015.6 mb 0.00 in0.0 mm 0.00 in0.0 mm 0.00 in0.0 mm
04:25 AM 51.5°F10.8°C 44.2°F6.8°C 76% 4.0 mph WSW6.4 kmh WSW 7.4 mph11.9 kmh 29.99 in1015.6 mb 0.00 in0.0 mm 0.00 in0.0 mm 0.00 in0.0 mm
04:35 AM 51.3°F10.7°C 44.0°F6.7°C 76% 3.5 mph SW5.6 kmh SW 5.0 mph8.0 kmh 29.99 in1015.6 mb 0.00 in0.0 mm 0.00 in0.0 mm 0.00 in0.0 mm
04:40 AM 51.5°F10.8°C 44.6°F7.0°C 77% 3.5 mph SSW5.6 kmh SSW 5.4 mph8.7 kmh 29.99 in1015.6 mb 0.00 in0.0 mm 0.00 in0.0 mm 0.00 in0.0 mm
04:45 AM 51.5°F10.8°C 44.6°F7.0°C 77% 4.0 mph SSW6.4 kmh SSW 5.4 mph8.7 kmh 29.99 in1015.6 mb 0.00 in0.0 mm 0.00 in0.0 mm 0.00 in0.0 mm
04:50 AM 51.5°F10.8°C 44.6°F7.0°C 77% 4.6 mph SSW7.4 kmh SSW 6.5 mph10.5 kmh 29.99 in1015.6 mb 0.00 in0.0 mm 0.00 in0.0 mm 0.00 in0.0 mm
04:55 AM 51.7°F10.9°C 44.7°F7.1°C 77% 5.3 mph SSW8.5 kmh SSW 10.7 mph17.2 kmh 29.99 in1015.6 mb 0.00 in0.0 mm 0.00 in0.0 mm 0.00 in0.0 mm
05:00 AM 51.7°F10.9°C 44.7°F7.1°C 77% 4.0 mph SSW6.4 kmh SSW 10.7 mph17.2 kmh 29.99 in1015.6 mb 0.00 in0.0 mm 0.00 in0.0 mm 0.00 in0.0 mm
05:05 AM 51.7°F10.9°C 44.7°F7.1°C 77% 3.6 mph SSW5.8 kmh SSW 7.1 mph11.4 kmh 29.99 in1015.6 mb 0.00 in0.0 mm 0.00 in0.0 mm 0.00 in0.0 mm
05:10 AM 51.9°F11.1°C 45.2°F7.3°C 78% 5.4 mph S8.7 kmh S 7.7 mph12.4 kmh 29.99 in1015.6 mb 0.00 in0.0 mm 0.00 in0.0 mm 0.00 in0.0 mm
05:15 AM 52.1°F11.2°C 45.4°F7.4°C 78% 5.6 mph SSW9.0 kmh SSW 8.9 mph14.3 kmh 29.99 in1015.6 mb 0.00 in0.0 mm 0.00 in0.0 mm 0.00 in0.0 mm
05:20 AM 52.4°F11.3°C 45.4°F7.4°C 77% 5.0 mph SSW8.0 kmh SSW 8.9 mph14.3 kmh 29.99 in1015.6 mb 0.00 in0.0 mm 0.00 in0.0 mm 0.00 in0.0 mm
05:25 AM 52.6°F11.4°C 45.6°F7.6°C 77% 5.7 mph SSW9.2 kmh SSW 8.0 mph12.9 kmh 29.99 in1015.6 mb 0.00 in0.0 mm 0.00 in0.0 mm 0.00 in0.0 mm
05:30 AM 53.0°F11.7°C 46.0°F7.8°C 77% 6.1 mph SSW9.8 kmh SSW 8.0 mph12.9 kmh 29.99 in1015.6 mb 0.00 in0.0 mm 0.00 in0.0 mm 0.00 in0.0 mm
05:35 AM 53.2°F11.8°C 46.1°F7.8°C 77% 6.3 mph SW10.1 kmh SW 8.0 mph12.9 kmh 29.99 in1015.6 mb 0.00 in0.0 mm 0.00 in0.0 mm 0.00 in0.0 mm
05:40 AM 53.3°F11.8°C 46.3°F7.9°C 77% 6.7 mph SSW10.8 kmh SSW 10.7 mph17.2 kmh 29.99 in1015.6 mb 0.00 in0.0 mm 0.00 in0.0 mm 0.00 in0.0 mm
05:45 AM 53.3°F11.8°C 46.3°F7.9°C 77% 5.9 mph S9.5 kmh S 10.7 mph17.2 kmh 29.99 in1015.6 mb 0.00 in0.0 mm 0.00 in0.0 mm 0.00 in0.0 mm
05:50 AM 53.5°F11.9°C 46.1°F7.8°C 76% 5.8 mph SSW9.3 kmh SSW 7.7 mph12.4 kmh 29.99 in1015.6 mb 0.00 in0.0 mm 0.00 in0.0 mm 0.00 in0.0 mm
05:55 AM 53.5°F11.9°C 46.1°F7.8°C 76% 6.0 mph SSW9.7 kmh SSW 7.7 mph12.4 kmh 29.99 in1015.6 mb 0.00 in0.0 mm 0.00 in0.0 mm 0.00 in0.0 mm
06:00 AM 53.7°F12.1°C 46.3°F7.9°C 76% 5.2 mph SSW8.4 kmh SSW 7.1 mph11.4 kmh 29.99 in1015.6 mb 0.00 in0.0 mm 0.00 in0.0 mm 0.00 in0.0 mm
06:05 AM 53.9°F12.2°C 46.5°F8.1°C 76% 4.6 mph S7.4 kmh S 6.0 mph9.7 kmh 29.99 in1015.6 mb 0.00 in0.0 mm 0.00 in0.0 mm 0.00 in0.0 mm
06:10 AM 53.9°F12.2°C 46.5°F8.1°C 76% 4.8 mph S7.7 kmh S 6.2 mph10.0 kmh 29.99 in1015.6 mb 0.00 in0.0 mm 0.00 in0.0 mm 0.00 in0.0 mm
06:15 AM 54.0°F12.2°C 46.7°F8.2°C 76% 5.4 mph S8.7 kmh S 7.7 mph12.4 kmh 29.99 in1015.6 mb 0.00 in0.0 mm 0.00 in0.0 mm 0.00 in0.0 mm
06:20 AM 54.2°F12.3°C 46.5°F8.1°C 75% 5.7 mph S9.2 kmh S 10.1 mph16.3 kmh 29.99 in1015.6 mb 0.00 in0.0 mm 0.00 in0.0 mm 0.00 in0.0 mm
06:25 AM 54.6°F12.6°C 46.8°F8.2°C 75% 6.1 mph S9.8 kmh S 10.1 mph16.3 kmh 29.99 in1015.6 mb 0.00 in0.0 mm 0.00 in0.0 mm 0.00 in0.0 mm
06:30 AM 55.0°F12.8°C 47.2°F8.4°C 75% 6.5 mph S10.5 kmh S 8.6 mph13.8 kmh 29.99 in1015.6 mb 0.00 in0.0 mm 0.00 in0.0 mm 0.00 in0.0 mm
06:35 AM 55.1°F12.8°C 47.3°F8.5°C 75% 6.9 mph S11.1 kmh S 8.6 mph13.8 kmh 29.99 in1015.6 mb 0.00 in0.0 mm 0.00 in0.0 mm 0.00 in0.0 mm
06:40 AM 55.5°F13.1°C 47.3°F8.5°C 74% 7.1 mph S11.4 kmh S 10.7 mph17.2 kmh 29.99 in1015.6 mb 0.00 in0.0 mm 0.00 in0.0 mm 0.00 in0.0 mm
06:45 AM 55.5°F13.1°C 47.3°F8.5°C 74% 6.7 mph S10.8 kmh S 10.7 mph17.2 kmh 29.99 in1015.6 mb 0.00 in0.0 mm 0.00 in0.0 mm 0.00 in0.0 mm
06:50 AM 55.5°F13.1°C 47.3°F8.5°C 74% 5.4 mph SSW8.7 kmh SSW 7.4 mph11.9 kmh 29.99 in1015.6 mb 0.00 in0.0 mm 0.00 in0.0 mm 0.00 in0.0 mm
06:55 AM 55.5°F13.1°C 47.3°F8.5°C 74% 5.1 mph SW8.2 kmh SW 7.7 mph12.4 kmh 29.99 in1015.6 mb 0.00 in0.0 mm 0.00 in0.0 mm 0.00 in0.0 mm
07:00 AM 55.5°F13.1°C 47.3°F8.5°C 74% 4.3 mph SW6.9 kmh SW 7.7 mph12.4 kmh 29.99 in1015.6 mb 0.00 in0.0 mm 0.00 in0.0 mm 0.00 in0.0 mm
07:05 AM 55.5°F13.1°C 47.3°F8.5°C 74% 3.8 mph SW6.1 kmh SW 7.4 mph11.9 kmh 29.99 in1015.6 mb 0.00 in0.0 mm 0.00 in0.0 mm 0.00 in0.0 mm
07:10 AM 55.5°F13.1°C 47.3°F8.5°C 74% 4.9 mph SW7.9 kmh SW 7.4 mph11.9 kmh 29.99 in1015.6 mb 0.00 in0.0 mm 0.00 in0.0 mm 0.00 in0.0 mm
07:15 AM 55.5°F13.1°C 47.7°F8.7°C 75% 4.6 mph SSW7.4 kmh SSW 7.4 mph11.9 kmh 29.99 in1015.6 mb 0.00 in0.0 mm 0.00 in0.0 mm 0.00 in0.0 mm
07:20 AM 55.5°F13.1°C 48.0°F8.9°C 76% 3.9 mph SSW6.3 kmh SSW 5.4 mph8.7 kmh 29.99 in1015.6 mb 0.00 in0.0 mm 0.00 in0.0 mm 0.00 in0.0 mm
07:25 AM 55.3°F12.9°C 47.9°F8.8°C 76% 4.4 mph SW7.1 kmh SW 7.4 mph11.9 kmh 29.99 in1015.6 mb 0.00 in0.0 mm 0.00 in0.0 mm 0.00 in0.0 mm
07:30 AM 55.1°F12.8°C 48.0°F8.9°C 77% 5.4 mph SSW8.7 kmh SSW 7.4 mph11.9 kmh 29.99 in1015.6 mb 0.00 in0.0 mm 0.00 in0.0 mm 0.00 in0.0 mm
07:35 AM 54.8°F12.7°C 48.0°F8.9°C 78% 4.9 mph SSW7.9 kmh SSW 7.1 mph11.4 kmh 29.99 in1015.6 mb 0.00 in0.0 mm 0.00 in0.0 mm 0.00 in0.0 mm
07:40 AM 54.8°F12.7°C 48.0°F8.9°C 78% 4.4 mph SSW7.1 kmh SSW 5.4 mph8.7 kmh 29.99 in1015.6 mb 0.04 in1.0 mm 0.48 in12.2 mm 0.04 in1.0 mm
07:45 AM 54.6°F12.6°C 48.2°F9.0°C 79% 4.1 mph SSW6.6 kmh SSW 5.7 mph9.2 kmh 29.99 in1015.6 mb 0.04 in1.0 mm 0.00 in0.0 mm 0.04 in1.0 mm
07:50 AM 54.4°F12.4°C 48.4°F9.1°C 80% 3.9 mph SSW6.3 kmh SSW 5.7 mph9.2 kmh 29.99 in1015.6 mb 0.04 in1.0 mm 0.00 in0.0 mm 0.04 in1.0 mm
07:55 AM 54.4°F12.4°C 48.4°F9.1°C 80% 3.1 mph S5.0 kmh S 4.5 mph7.2 kmh 29.99 in1015.6 mb 0.09 in2.3 mm 0.60 in15.2 mm 0.09 in2.3 mm
08:00 AM 54.4°F12.4°C 48.4°F9.1°C 80% 1.8 mph S2.9 kmh S 4.2 mph6.8 kmh 29.99 in1015.6 mb 0.09 in2.3 mm 0.00 in0.0 mm 0.09 in2.3 mm
08:05 AM 54.2°F12.3°C 48.5°F9.2°C 81% 0.7 mph S1.1 kmh S 3.3 mph5.3 kmh 29.99 in1015.6 mb 0.09 in2.3 mm 0.00 in0.0 mm 0.09 in2.3 mm
08:10 AM 54.2°F12.3°C 48.5°F9.2°C 81% 1.2 mph E1.9 kmh E 3.3 mph5.3 kmh 29.99 in1015.6 mb 0.13 in3.3 mm 0.48 in12.2 mm 0.13 in3.3 mm
08:15 AM 54.2°F12.3°C 48.9°F9.4°C 82% 2.2 mph ENE3.5 kmh ENE 3.3 mph5.3 kmh 29.99 in1015.6 mb 0.17 in4.3 mm 0.48 in12.2 mm 0.17 in4.3 mm
08:20 AM 54.4°F12.4°C 49.0°F9.4°C 82% 2.3 mph NE3.7 kmh NE 3.9 mph6.3 kmh 29.99 in1015.6 mb 0.17 in4.3 mm 0.00 in0.0 mm 0.17 in4.3 mm
08:25 AM 54.4°F12.4°C 49.4°F9.7°C 83% 2.0 mph NNE3.2 kmh NNE 3.9 mph6.3 kmh 29.99 in1015.6 mb 0.21 in5.3 mm 0.48 in12.2 mm 0.21 in5.3 mm
08:30 AM 54.4°F12.4°C 49.4°F9.7°C 83% 1.2 mph N1.9 kmh N 3.3 mph5.3 kmh 29.99 in1015.6 mb 0.21 in5.3 mm 0.00 in0.0 mm 0.21 in5.3 mm
08:35 AM 54.2°F12.3°C 49.2°F9.6°C 83% 0.6 mph NNE1.0 kmh NNE 2.1 mph3.4 kmh 29.99 in1015.6 mb 0.25 in6.4 mm 0.48 in12.2 mm 0.25 in6.4 mm
08:40 AM 54.2°F12.3°C 49.5°F9.7°C 84% 0.3 mph NNE0.5 kmh NNE 1.8 mph2.9 kmh 29.99 in1015.6 mb 0.25 in6.4 mm 0.00 in0.0 mm 0.29 in7.4 mm
08:45 AM 54.4°F12.4°C 49.7°F9.8°C 84% 0.1 mph NE0.2 kmh NE 1.5 mph2.4 kmh 29.99 in1015.6 mb 0.25 in6.4 mm 0.00 in0.0 mm 0.29 in7.4 mm
08:50 AM 54.4°F12.4°C 49.7°F9.8°C 84% 0.4 mph E0.6 kmh E 3.0 mph4.8 kmh 29.99 in1015.6 mb 0.29 in7.4 mm 0.48 in12.2 mm 0.33 in8.4 mm
08:55 AM 54.4°F12.4°C 50.0°F10.0°C 85% 1.2 mph E1.9 kmh E 3.0 mph4.8 kmh 29.99 in1015.6 mb 0.24 in6.1 mm 0.00 in0.0 mm 0.33 in8.4 mm
09:00 AM 54.4°F12.4°C 50.0°F10.0°C 85% 0.9 mph E1.4 kmh E 2.7 mph4.3 kmh 29.99 in1015.6 mb 0.28 in7.1 mm 0.04 in1.0 mm 0.37 in9.4 mm
09:05 AM 54.6°F12.6°C 50.2°F10.1°C 85% 0.7 mph E1.1 kmh E 2.7 mph4.3 kmh 29.99 in1015.6 mb 0.28 in7.1 mm 0.00 in0.0 mm 0.37 in9.4 mm
09:10 AM 54.8°F12.7°C 50.7°F10.4°C 86% 0.8 mph ESE1.3 kmh ESE 2.7 mph4.3 kmh 29.96 in1014.6 mb 0.29 in7.4 mm 0.12 in3.0 mm 0.42 in10.7 mm
09:15 AM 54.8°F12.7°C 50.7°F10.4°C 86% 1.6 mph SSE2.6 kmh SSE 3.3 mph5.3 kmh 29.96 in1014.6 mb 0.29 in7.4 mm 0.00 in0.0 mm 0.46 in11.7 mm
09:20 AM 55.0°F12.8°C 50.8°F10.4°C 86% 2.0 mph SSE3.2 kmh SSE 3.6 mph5.8 kmh 29.96 in1014.6 mb 0.29 in7.4 mm 0.00 in0.0 mm 0.46 in11.7 mm
09:25 AM 55.1°F12.8°C 51.3°F10.7°C 87% 1.4 mph SE2.3 kmh SE 3.6 mph5.8 kmh 29.96 in1014.6 mb 0.25 in6.4 mm 0.00 in0.0 mm 0.46 in11.7 mm
09:30 AM 55.3°F12.9°C 51.5°F10.8°C 87% 0.7 mph ENE1.1 kmh ENE 2.7 mph4.3 kmh 29.96 in1014.6 mb 0.25 in6.4 mm 0.00 in0.0 mm 0.46 in11.7 mm
09:35 AM 55.5°F13.1°C 51.7°F10.9°C 87% 0.5 mph NE0.8 kmh NE 2.7 mph4.3 kmh 29.99 in1015.6 mb 0.21 in5.3 mm 0.00 in0.0 mm 0.46 in11.7 mm
09:40 AM 55.5°F13.1°C 52.0°F11.1°C 88% 0.2 mph SW0.3 kmh SW 1.2 mph1.9 kmh 29.99 in1015.6 mb 0.17 in4.3 mm 0.00 in0.0 mm 0.46 in11.7 mm
09:45 AM 55.7°F13.2°C 52.2°F11.2°C 88% 0.6 mph S1.0 kmh S 2.1 mph3.4 kmh 29.99 in1015.6 mb 0.17 in4.3 mm 0.00 in0.0 mm 0.46 in11.7 mm
09:50 AM 55.8°F13.2°C 52.3°F11.3°C 88% 1.0 mph SE1.6 kmh SE 2.1 mph3.4 kmh 29.96 in1014.6 mb 0.13 in3.3 mm 0.00 in0.0 mm 0.46 in11.7 mm
09:55 AM 56.2°F13.4°C 52.7°F11.5°C 88% 1.1 mph ESE1.8 kmh ESE 2.1 mph3.4 kmh 29.96 in1014.6 mb 0.13 in3.3 mm 0.00 in0.0 mm 0.46 in11.7 mm
10:00 AM 56.8°F13.8°C 53.5°F11.9°C 89% 1.4 mph SSE2.3 kmh SSE 3.3 mph5.3 kmh 29.96 in1014.6 mb 0.09 in2.3 mm 0.00 in0.0 mm 0.46 in11.7 mm
10:05 AM 57.1°F13.9°C 53.9°F12.2°C 89% 1.5 mph S2.4 kmh S 3.3 mph5.3 kmh 29.96 in1014.6 mb 0.09 in2.3 mm 0.00 in0.0 mm 0.46 in11.7 mm
10:10 AM 57.8°F14.3°C 54.6°F12.6°C 89% 0.7 mph SSE1.1 kmh SSE 2.7 mph4.3 kmh 29.96 in1014.6 mb 0.04 in1.0 mm 0.00 in0.0 mm 0.46 in11.7 mm
10:15 AM 58.7°F14.8°C 55.8°F13.2°C 90% 0.2 mph WSW0.3 kmh WSW 1.2 mph1.9 kmh 29.96 in1014.6 mb 0.00 in0.0 mm 0.00 in0.0 mm 0.46 in11.7 mm
10:20 AM 60.2°F15.7°C 57.2°F14.0°C 90% 2.5 mph WSW4.0 kmh WSW 8.3 mph13.4 kmh 29.96 in1014.6 mb 0.00 in0.0 mm 0.00 in0.0 mm 0.46 in11.7 mm
10:25 AM 60.5°F15.8°C 57.3°F14.1°C 89% 3.6 mph WSW5.8 kmh WSW 8.3 mph13.4 kmh 29.96 in1014.6 mb 0.00 in0.0 mm 0.00 in0.0 mm 0.46 in11.7 mm
10:30 AM 61.3°F16.3°C 57.7°F14.3°C 88% 4.0 mph WSW6.4 kmh WSW 7.7 mph12.4 kmh 29.96 in1014.6 mb 0.00 in0.0 mm 0.00 in0.0 mm 0.46 in11.7 mm
10:35 AM 61.8°F16.6°C 57.9°F14.4°C 87% 6.7 mph WSW10.8 kmh WSW 10.7 mph17.2 kmh 29.99 in1015.6 mb 0.00 in0.0 mm 0.00 in0.0 mm 0.46 in11.7 mm
10:40 AM 62.7°F17.1°C 58.4°F14.7°C 86% 6.9 mph WSW11.1 kmh WSW 10.7 mph17.2 kmh 29.99 in1015.6 mb 0.00 in0.0 mm 0.00 in0.0 mm 0.46 in11.7 mm
10:45 AM 62.9°F17.2°C 58.0°F14.4°C 84% 6.7 mph WSW10.8 kmh WSW 11.3 mph18.2 kmh 29.99 in1015.6 mb 0.00 in0.0 mm 0.00 in0.0 mm 0.46 in11.7 mm
10:50 AM 62.7°F17.1°C 57.5°F14.2°C 83% 6.8 mph W10.9 kmh W 11.3 mph18.2 kmh 29.99 in1015.6 mb 0.00 in0.0 mm 0.00 in0.0 mm 0.46 in11.7 mm
10:55 AM 62.7°F17.1°C 57.5°F14.2°C 83% 7.3 mph W11.7 kmh W 11.3 mph18.2 kmh 29.99 in1015.6 mb 0.00 in0.0 mm 0.00 in0.0 mm 0.46 in11.7 mm
11:00 AM 62.5°F16.9°C 56.9°F13.8°C 82% 8.3 mph WNW13.4 kmh WNW 11.6 mph18.7 kmh 29.99 in1015.6 mb 0.00 in0.0 mm 0.00 in0.0 mm 0.46 in11.7 mm
11:05 AM 62.3°F16.8°C 56.4°F13.6°C 81% 8.3 mph W13.4 kmh W 11.6 mph18.7 kmh 29.99 in1015.6 mb 0.00 in0.0 mm 0.00 in0.0 mm 0.46 in11.7 mm
11:10 AM 62.7°F17.1°C 56.8°F13.8°C 81% 7.9 mph W12.7 kmh W 10.7 mph17.2 kmh 29.99 in1015.6 mb 0.00 in0.0 mm 0.00 in0.0 mm 0.46 in11.7 mm
11:15 AM 62.9°F17.2°C 56.6°F13.7°C 80% 7.6 mph NW12.2 kmh NW 13.4 mph21.6 kmh 29.99 in1015.6 mb 0.00 in0.0 mm 0.00 in0.0 mm 0.46 in11.7 mm
11:20 AM 63.0°F17.2°C 56.8°F13.8°C 80% 7.4 mph WNW11.9 kmh WNW 13.4 mph21.6 kmh 29.99 in1015.6 mb 0.00 in0.0 mm 0.00 in0.0 mm 0.46 in11.7 mm
11:25 AM 63.6°F17.6°C 57.0°F13.9°C 79% 6.9 mph WNW11.1 kmh WNW 13.4 mph21.6 kmh 29.99 in1015.6 mb 0.00 in0.0 mm 0.00 in0.0 mm 0.46 in11.7 mm
11:30 AM 63.8°F17.7°C 56.8°F13.8°C 78% 7.7 mph W12.4 kmh W 11.3 mph18.2 kmh 29.99 in1015.6 mb 0.00 in0.0 mm 0.00 in0.0 mm 0.46 in11.7 mm
11:35 AM 64.3°F17.9°C 56.9°F13.8°C 77% 8.7 mph W14.0 kmh W 11.3 mph18.2 kmh 29.99 in1015.6 mb 0.00 in0.0 mm 0.00 in0.0 mm 0.46 in11.7 mm
11:40 AM 64.8°F18.2°C 57.1°F13.9°C 76% 8.1 mph W13.0 kmh W 11.3 mph18.2 kmh 29.99 in1015.6 mb 0.00 in0.0 mm 0.00 in0.0 mm 0.46 in11.7 mm
11:45 AM 65.4°F18.6°C 56.9°F13.8°C 74% 8.8 mph WNW14.2 kmh WNW 12.8 mph20.6 kmh 29.99 in1015.6 mb 0.00 in0.0 mm 0.00 in0.0 mm 0.46 in11.7 mm
11:50 AM 65.8°F18.8°C 56.9°F13.8°C 73% 9.5 mph WNW15.3 kmh WNW 12.8 mph20.6 kmh 29.99 in1015.6 mb 0.00 in0.0 mm 0.00 in0.0 mm 0.46 in11.7 mm
11:55 AM 66.1°F18.9°C 56.8°F13.8°C 72% 9.0 mph WNW14.5 kmh WNW 14.0 mph22.5 kmh 29.99 in1015.6 mb 0.00 in0.0 mm 0.00 in0.0 mm 0.46 in11.7 mm
12:00 PM 66.1°F18.9°C 56.8°F13.8°C 72% 9.2 mph W14.8 kmh W 14.3 mph23.0 kmh 29.99 in1015.6 mb 0.00 in0.0 mm 0.00 in0.0 mm 0.46 in11.7 mm
12:05 PM 66.3°F19.1°C 56.6°F13.7°C 71% 10.0 mph WSW16.1 kmh WSW 14.3 mph23.0 kmh 30.02 in1016.6 mb 0.00 in0.0 mm 0.00 in0.0 mm 0.46 in11.7 mm
12:10 PM 66.3°F19.1°C 56.2°F13.4°C 70% 12.2 mph W19.6 kmh W 16.1 mph25.9 kmh 30.02 in1016.6 mb 0.00 in0.0 mm 0.00 in0.0 mm 0.46 in11.7 mm
12:15 PM 65.6°F18.7°C 55.5°F13.1°C 70% 13.3 mph W21.4 kmh W 17.9 mph28.8 kmh 30.02 in1016.6 mb 0.08 in2.0 mm 0.96 in24.4 mm 0.54 in13.7 mm
12:20 PM 62.9°F17.2°C 54.1°F12.3°C 73% 9.5 mph WNW15.3 kmh WNW 17.9 mph28.8 kmh 29.99 in1015.6 mb 0.12 in3.0 mm 0.48 in12.2 mm 0.58 in14.7 mm
12:25 PM 62.5°F16.9°C 54.5°F12.5°C 75% 7.2 mph WNW11.6 kmh WNW 10.7 mph17.2 kmh 29.99 in1015.6 mb 0.12 in3.0 mm 0.00 in0.0 mm 0.58 in14.7 mm
12:30 PM 62.3°F16.8°C 53.9°F12.2°C 74% 8.3 mph WNW13.4 kmh WNW 11.6 mph18.7 kmh 29.99 in1015.6 mb 0.12 in3.0 mm 0.00 in0.0 mm 0.58 in14.7 mm
12:35 PM 62.3°F16.8°C 54.3°F12.4°C 75% 8.6 mph W13.8 kmh W 17.0 mph27.4 kmh 30.02 in1016.6 mb 0.12 in3.0 mm 0.00 in0.0 mm 0.58 in14.7 mm
12:40 PM 62.9°F17.2°C 55.2°F12.9°C 76% 7.9 mph W12.7 kmh W 17.0 mph27.4 kmh 30.02 in1016.6 mb 0.12 in3.0 mm 0.00 in0.0 mm 0.58 in14.7 mm
12:45 PM 63.2°F17.3°C 55.5°F13.1°C 76% 8.4 mph W13.5 kmh W 13.4 mph21.6 kmh 30.02 in1016.6 mb 0.12 in3.0 mm 0.00 in0.0 mm 0.58 in14.7 mm
12:50 PM 63.8°F17.7°C 55.3°F12.9°C 74% 10.0 mph W16.1 kmh W 15.2 mph24.5 kmh 30.02 in1016.6 mb 0.12 in3.0 mm 0.00 in0.0 mm 0.58 in14.7 mm
12:55 PM 64.1°F17.8°C 55.3°F12.9°C 73% 10.2 mph W16.4 kmh W 15.2 mph24.5 kmh 30.02 in1016.6 mb 0.12 in3.0 mm 0.00 in0.0 mm 0.58 in14.7 mm
01:00 PM 64.5°F18.1°C 55.3°F12.9°C 72% 11.5 mph W18.5 kmh W 17.6 mph28.3 kmh 30.02 in1016.6 mb 0.12 in3.0 mm 0.00 in0.0 mm 0.58 in14.7 mm
01:05 PM 64.8°F18.2°C 55.2°F12.9°C 71% 13.2 mph W21.2 kmh W 17.6 mph28.3 kmh 30.02 in1016.6 mb 0.12 in3.0 mm 0.00 in0.0 mm 0.58 in14.7 mm
01:10 PM 65.2°F18.4°C 54.8°F12.7°C 69% 12.4 mph W20.0 kmh W 17.6 mph28.3 kmh 30.02 in1016.6 mb 0.12 in3.0 mm 0.00 in0.0 mm 0.58 in14.7 mm
01:15 PM 65.6°F18.7°C 54.7°F12.6°C 68% 12.6 mph WSW20.3 kmh WSW 17.3 mph27.8 kmh 30.02 in1016.6 mb 0.04 in1.0 mm 0.00 in0.0 mm 0.58 in14.7 mm
01:20 PM 65.9°F18.8°C 54.7°F12.6°C 67% 13.5 mph W21.7 kmh W 17.3 mph27.8 kmh 30.02 in1016.6 mb 0.00 in0.0 mm 0.00 in0.0 mm 0.58 in14.7 mm
01:25 PM 66.1°F18.9°C 54.8°F12.7°C 67% 12.6 mph W20.3 kmh W 16.4 mph26.4 kmh 30.02 in1016.6 mb 0.00 in0.0 mm 0.00 in0.0 mm 0.58 in14.7 mm
01:30 PM 66.5°F19.2°C 54.8°F12.7°C 66% 10.8 mph W17.4 kmh W 17.6 mph28.3 kmh 30.02 in1016.6 mb 0.00 in0.0 mm 0.00 in0.0 mm 0.58 in14.7 mm
01:35 PM 66.7°F19.3°C 54.5°F12.5°C 65% 10.2 mph W16.4 kmh W 17.6 mph28.3 kmh 30.02 in1016.6 mb 0.00 in0.0 mm 0.00 in0.0 mm 0.58 in14.7 mm
01:40 PM 66.7°F19.3°C 54.1°F12.3°C 64% 12.2 mph W19.6 kmh W 19.6 mph31.5 kmh 30.02 in1016.6 mb 0.00 in0.0 mm 0.00 in0.0 mm 0.58 in14.7 mm
01:45 PM 66.7°F19.3°C 54.1°F12.3°C 64% 12.4 mph W20.0 kmh W 19.6 mph31.5 kmh 30.02 in1016.6 mb 0.00 in0.0 mm 0.00 in0.0 mm 0.58 in14.7 mm
01:50 PM 66.7°F19.3°C 54.1°F12.3°C 64% 13.2 mph W21.2 kmh W 23.2 mph37.3 kmh 30.02 in1016.6 mb 0.00 in0.0 mm 0.00 in0.0 mm 0.58 in14.7 mm
01:55 PM 66.8°F19.3°C 53.8°F12.1°C 63% 13.5 mph W21.7 kmh W 23.2 mph37.3 kmh 30.02 in1016.6 mb 0.00 in0.0 mm 0.00 in0.0 mm 0.58 in14.7 mm
02:00 PM 66.8°F19.3°C 53.8°F12.1°C 63% 14.5 mph W23.3 kmh W 26.2 mph42.2 kmh 30.02 in1016.6 mb 0.00 in0.0 mm 0.00 in0.0 mm 0.58 in14.7 mm
02:05 PM 66.7°F19.3°C 53.2°F11.8°C 62% 14.9 mph W24.0 kmh W 26.2 mph42.2 kmh 30.02 in1016.6 mb 0.00 in0.0 mm 0.00 in0.0 mm 0.58 in14.7 mm
02:10 PM 66.7°F19.3°C 53.2°F11.8°C 62% 13.4 mph W21.6 kmh W 20.2 mph32.5 kmh 30.02 in1016.6 mb 0.00 in0.0 mm 0.00 in0.0 mm 0.58 in14.7 mm
02:15 PM 66.7°F19.3°C 52.8°F11.6°C 61% 15.4 mph W24.8 kmh W 20.5 mph33.0 kmh 30.02 in1016.6 mb 0.00 in0.0 mm 0.00 in0.0 mm 0.58 in14.7 mm
02:20 PM 66.5°F19.2°C 52.6°F11.4°C 61% 16.2 mph W26.1 kmh W 20.5 mph33.0 kmh 30.02 in1016.6 mb 0.00 in0.0 mm 0.00 in0.0 mm 0.58 in14.7 mm
02:25 PM 66.3°F19.1°C 52.4°F11.3°C 61% 16.2 mph W26.1 kmh W 21.7 mph34.9 kmh 30.02 in1016.6 mb 0.00 in0.0 mm 0.00 in0.0 mm 0.58 in14.7 mm
02:30 PM 66.3°F19.1°C 52.4°F11.3°C 61% 15.8 mph WSW25.4 kmh WSW 21.7 mph34.9 kmh 30.02 in1016.6 mb 0.00 in0.0 mm 0.00 in0.0 mm 0.58 in14.7 mm
02:35 PM 66.5°F19.2°C 52.6°F11.4°C 61% 12.9 mph W20.8 kmh W 20.8 mph33.5 kmh 30.02 in1016.6 mb 0.00 in0.0 mm 0.00 in0.0 mm 0.58 in14.7 mm
02:40 PM 66.7°F19.3°C 52.8°F11.6°C 61% 11.3 mph WNW18.2 kmh WNW 17.3 mph27.8 kmh 30.02 in1016.6 mb 0.00 in0.0 mm 0.00 in0.0 mm 0.58 in14.7 mm
02:45 PM 67.0°F19.4°C 52.7°F11.5°C 60% 11.4 mph W18.3 kmh W 14.3 mph23.0 kmh 30.02 in1016.6 mb 0.00 in0.0 mm 0.00 in0.0 mm 0.58 in14.7 mm
02:50 PM 66.8°F19.3°C 52.0°F11.1°C 59% 15.0 mph W24.1 kmh W 21.7 mph34.9 kmh 30.02 in1016.6 mb 0.00 in0.0 mm 0.00 in0.0 mm 0.58 in14.7 mm
02:55 PM 66.8°F19.3°C 52.0°F11.1°C 59% 16.3 mph W26.2 kmh W 22.9 mph36.9 kmh 30.02 in1016.6 mb 0.00 in0.0 mm 0.00 in0.0 mm 0.58 in14.7 mm
03:00 PM 67.0°F19.4°C 51.7°F10.9°C 58% 14.5 mph W23.3 kmh W 22.9 mph36.9 kmh 30.02 in1016.6 mb 0.00 in0.0 mm 0.00 in0.0 mm 0.58 in14.7 mm
03:05 PM 67.2°F19.6°C 51.4°F10.8°C 57% 14.1 mph W22.7 kmh W 23.2 mph37.3 kmh 30.02 in1016.6 mb 0.00 in0.0 mm 0.00 in0.0 mm 0.58 in14.7 mm
03:10 PM 67.0°F19.4°C 50.8°F10.4°C 56% 13.8 mph WNW22.2 kmh WNW 23.2 mph37.3 kmh 30.02 in1016.6 mb 0.00 in0.0 mm 0.00 in0.0 mm 0.58 in14.7 mm
03:15 PM 67.2°F19.6°C 51.0°F10.6°C 56% 12.9 mph W20.8 kmh W 17.6 mph28.3 kmh 30.02 in1016.6 mb 0.00 in0.0 mm 0.00 in0.0 mm 0.58 in14.7 mm
03:20 PM 67.0°F19.4°C 50.3°F10.2°C 55% 16.2 mph W26.1 kmh W 23.5 mph37.8 kmh 30.02 in1016.6 mb 0.00 in0.0 mm 0.00 in0.0 mm 0.58 in14.7 mm
03:25 PM 66.8°F19.3°C 49.6°F9.8°C 54% 16.6 mph W26.7 kmh W 23.5 mph37.8 kmh 30.02 in1016.6 mb 0.00 in0.0 mm 0.00 in0.0 mm 0.58 in14.7 mm
03:30 PM 66.7°F19.3°C 49.5°F9.7°C 54% 15.3 mph W24.6 kmh W 26.2 mph42.2 kmh 30.02 in1016.6 mb 0.00 in0.0 mm 0.00 in0.0 mm 0.58 in14.7 mm
03:35 PM 66.7°F19.3°C 49.5°F9.7°C 54% 15.1 mph W24.3 kmh W 26.2 mph42.2 kmh 30.02 in1016.6 mb 0.00 in0.0 mm 0.00 in0.0 mm 0.58 in14.7 mm
03:40 PM 66.5°F19.2°C 48.8°F9.3°C 53% 14.8 mph W23.8 kmh W 23.2 mph37.3 kmh 30.02 in1016.6 mb 0.00 in0.0 mm 0.00 in0.0 mm 0.58 in14.7 mm
03:45 PM 66.7°F19.3°C 49.0°F9.4°C 53% 14.3 mph W23.0 kmh W 23.2 mph37.3 kmh 30.02 in1016.6 mb 0.00 in0.0 mm 0.00 in0.0 mm 0.58 in14.7 mm
03:50 PM 66.7°F19.3°C 49.0°F9.4°C 53% 13.3 mph WNW21.4 kmh WNW 20.5 mph33.0 kmh 30.05 in1017.6 mb 0.00 in0.0 mm 0.00 in0.0 mm 0.58 in14.7 mm
03:55 PM 66.7°F19.3°C 48.5°F9.2°C 52% 13.1 mph WNW21.1 kmh WNW 17.0 mph27.4 kmh 30.05 in1017.6 mb 0.00 in0.0 mm 0.00 in0.0 mm 0.58 in14.7 mm
04:00 PM 66.5°F19.2°C 48.3°F9.1°C 52% 12.7 mph W20.4 kmh W 17.6 mph28.3 kmh 30.05 in1017.6 mb 0.00 in0.0 mm 0.00 in0.0 mm 0.58 in14.7 mm
04:05 PM 66.5°F19.2°C 48.8°F9.3°C 53% 14.3 mph W23.0 kmh W 17.6 mph28.3 kmh 30.05 in1017.6 mb 0.00 in0.0 mm 0.00 in0.0 mm 0.58 in14.7 mm
04:10 PM 66.5°F19.2°C 48.8°F9.3°C 53% 15.4 mph W24.8 kmh W 19.3 mph31.1 kmh 30.05 in1017.6 mb 0.00 in0.0 mm 0.00 in0.0 mm 0.58 in14.7 mm
04:15 PM 66.7°F19.3°C 48.5°F9.2°C 52% 13.6 mph W21.9 kmh W 19.3 mph31.1 kmh 30.05 in1017.6 mb 0.00 in0.0 mm 0.00 in0.0 mm 0.58 in14.7 mm
04:20 PM 66.5°F19.2°C 48.3°F9.1°C 52% 12.2 mph W19.6 kmh W 18.7 mph30.1 kmh 30.05 in1017.6 mb 0.00 in0.0 mm 0.00 in0.0 mm 0.58 in14.7 mm
04:25 PM 66.5°F19.2°C 47.8°F8.8°C 51% 13.0 mph W20.9 kmh W 20.8 mph33.5 kmh 30.05 in1017.6 mb 0.00 in0.0 mm 0.00 in0.0 mm 0.58 in14.7 mm
04:30 PM 66.5°F19.2°C 47.8°F8.8°C 51% 13.9 mph W22.4 kmh W 22.0 mph35.4 kmh 30.05 in1017.6 mb 0.00 in0.0 mm 0.00 in0.0 mm 0.58 in14.7 mm
04:35 PM 66.1°F18.9°C 47.4°F8.6°C 51% 14.0 mph W22.5 kmh W 22.0 mph35.4 kmh 30.05 in1017.6 mb 0.00 in0.0 mm 0.00 in0.0 mm 0.58 in14.7 mm
04:40 PM 65.9°F18.8°C 47.3°F8.5°C 51% 13.8 mph W22.2 kmh W 17.6 mph28.3 kmh 30.05 in1017.6 mb 0.00 in0.0 mm 0.00 in0.0 mm 0.58 in14.7 mm
04:45 PM 65.9°F18.8°C 47.3°F8.5°C 51% 14.2 mph WNW22.9 kmh WNW 20.2 mph32.5 kmh 30.05 in1017.6 mb 0.00 in0.0 mm 0.00 in0.0 mm 0.58 in14.7 mm
04:50 PM 65.9°F18.8°C 47.3°F8.5°C 51% 14.7 mph WNW23.7 kmh WNW 20.2 mph32.5 kmh 30.05 in1017.6 mb 0.00 in0.0 mm 0.00 in0.0 mm 0.58 in14.7 mm
04:55 PM 65.8°F18.8°C 47.1°F8.4°C 51% 15.1 mph W24.3 kmh W 22.9 mph36.9 kmh 30.05 in1017.6 mb 0.00 in0.0 mm 0.00 in0.0 mm 0.58 in14.7 mm
05:00 PM 65.6°F18.7°C 46.9°F8.3°C 51% 15.5 mph W24.9 kmh W 22.9 mph36.9 kmh 30.05 in1017.6 mb 0.00 in0.0 mm 0.00 in0.0 mm 0.58 in14.7 mm
05:05 PM 65.6°F18.7°C 47.5°F8.6°C 52% 16.0 mph WNW25.7 kmh WNW 22.9 mph36.9 kmh 30.05 in1017.6 mb 0.00 in0.0 mm 0.00 in0.0 mm 0.58 in14.7 mm
05:10 PM 65.6°F18.7°C 47.5°F8.6°C 52% 13.6 mph NW21.9 kmh NW 20.8 mph33.5 kmh 30.05 in1017.6 mb 0.00 in0.0 mm 0.00 in0.0 mm 0.58 in14.7 mm
05:15 PM 65.6°F18.7°C 47.5°F8.6°C 52% 13.9 mph W22.4 kmh W 22.9 mph36.9 kmh 30.05 in1017.6 mb 0.00 in0.0 mm 0.00 in0.0 mm 0.58 in14.7 mm
05:20 PM 65.4°F18.6°C 47.3°F8.5°C 52% 15.6 mph W25.1 kmh W 22.9 mph36.9 kmh 30.05 in1017.6 mb 0.00 in0.0 mm 0.00 in0.0 mm 0.58 in14.7 mm
05:25 PM 65.2°F18.4°C 47.1°F8.4°C 52% 15.4 mph W24.8 kmh W 22.9 mph36.9 kmh 30.05 in1017.6 mb 0.00 in0.0 mm 0.00 in0.0 mm 0.58 in14.7 mm
05:30 PM 65.0°F18.3°C 47.0°F8.3°C 52% 12.1 mph W19.5 kmh W 17.3 mph27.8 kmh 30.05 in1017.6 mb 0.00 in0.0 mm 0.00 in0.0 mm 0.58 in14.7 mm
05:35 PM 65.0°F18.3°C 47.0°F8.3°C 52% 11.9 mph WSW19.2 kmh WSW 17.0 mph27.4 kmh 30.08 in1018.6 mb 0.00 in0.0 mm 0.00 in0.0 mm 0.58 in14.7 mm
05:40 PM 65.0°F18.3°C 47.0°F8.3°C 52% 11.2 mph WSW18.0 kmh WSW 14.6 mph23.5 kmh 30.08 in1018.6 mb 0.00 in0.0 mm 0.00 in0.0 mm 0.58 in14.7 mm
05:45 PM 65.0°F18.3°C 47.0°F8.3°C 52% 12.3 mph W19.8 kmh W 17.3 mph27.8 kmh 30.08 in1018.6 mb 0.00 in0.0 mm 0.00 in0.0 mm 0.58 in14.7 mm
05:50 PM 64.8°F18.2°C 46.8°F8.2°C 52% 12.7 mph W20.4 kmh W 17.6 mph28.3 kmh 30.08 in1018.6 mb 0.00 in0.0 mm 0.00 in0.0 mm 0.58 in14.7 mm
05:55 PM 64.7°F18.2°C 46.6°F8.1°C 52% 10.9 mph W17.5 kmh W 17.6 mph28.3 kmh 30.08 in1018.6 mb 0.00 in0.0 mm 0.00 in0.0 mm 0.58 in14.7 mm
06:00 PM 64.7°F18.2°C 47.1°F8.4°C 53% 10.1 mph W16.3 kmh W 17.6 mph28.3 kmh 30.08 in1018.6 mb 0.00 in0.0 mm 0.00 in0.0 mm 0.58 in14.7 mm
06:05 PM 64.3°F17.9°C 46.8°F8.2°C 53% 12.7 mph W20.4 kmh W 20.5 mph33.0 kmh 30.08 in1018.6 mb 0.00 in0.0 mm 0.00 in0.0 mm 0.58 in14.7 mm
06:10 PM 64.3°F17.9°C 46.8°F8.2°C 53% 12.1 mph WNW19.5 kmh WNW 20.5 mph33.0 kmh 30.08 in1018.6 mb 0.00 in0.0 mm 0.00 in0.0 mm 0.58 in14.7 mm
06:15 PM 64.3°F17.9°C 46.8°F8.2°C 53% 11.2 mph W18.0 kmh W 16.4 mph26.4 kmh 30.08 in1018.6 mb 0.00 in0.0 mm 0.00 in0.0 mm 0.58 in14.7 mm
06:20 PM 64.0°F17.8°C 46.5°F8.1°C 53% 13.1 mph W21.1 kmh W 19.6 mph31.5 kmh 30.08 in1018.6 mb 0.00 in0.0 mm 0.00 in0.0 mm 0.58 in14.7 mm
06:25 PM 63.8°F17.7°C 46.8°F8.2°C 54% 13.0 mph W20.9 kmh W 19.6 mph31.5 kmh 30.08 in1018.6 mb 0.00 in0.0 mm 0.00 in0.0 mm 0.58 in14.7 mm
06:30 PM 63.6°F17.6°C 46.6°F8.1°C 54% 9.8 mph W15.8 kmh W 17.0 mph27.4 kmh 30.08 in1018.6 mb 0.00 in0.0 mm 0.00 in0.0 mm 0.58 in14.7 mm
06:35 PM 63.2°F17.3°C 46.3°F7.9°C 54% 8.9 mph W14.3 kmh W 13.7 mph22.0 kmh 30.08 in1018.6 mb 0.00 in0.0 mm 0.00 in0.0 mm 0.58 in14.7 mm
06:40 PM 62.7°F17.1°C 46.3°F7.9°C 55% 9.2 mph WNW14.8 kmh WNW 13.7 mph22.0 kmh 30.08 in1018.6 mb 0.00 in0.0 mm 0.00 in0.0 mm 0.58 in14.7 mm
06:45 PM 62.5°F16.9°C 46.6°F8.1°C 56% 9.1 mph NW14.6 kmh NW 14.9 mph24.0 kmh 30.08 in1018.6 mb 0.00 in0.0 mm 0.00 in0.0 mm 0.58 in14.7 mm
06:50 PM 62.0°F16.7°C 46.1°F7.8°C 56% 10.5 mph NW16.9 kmh NW 14.9 mph24.0 kmh 30.08 in1018.6 mb 0.00 in0.0 mm 0.00 in0.0 mm 0.58 in14.7 mm
06:55 PM 61.8°F16.6°C 45.9°F7.7°C 56% 9.6 mph WNW15.4 kmh WNW 13.4 mph21.6 kmh 30.08 in1018.6 mb 0.00 in0.0 mm 0.00 in0.0 mm 0.58 in14.7 mm
07:00 PM 61.8°F16.6°C 45.9°F7.7°C 56% 8.0 mph WNW12.9 kmh WNW 13.4 mph21.6 kmh 30.08 in1018.6 mb 0.00 in0.0 mm 0.00 in0.0 mm 0.58 in14.7 mm
07:05 PM 61.4°F16.3°C 46.1°F7.8°C 57% 8.7 mph WNW14.0 kmh WNW 13.4 mph21.6 kmh 30.11 in1019.6 mb 0.00 in0.0 mm 0.00 in0.0 mm 0.58 in14.7 mm
07:10 PM 61.3°F16.3°C 46.3°F7.9°C 58% 11.2 mph W18.0 kmh W 18.1 mph29.1 kmh 30.11 in1019.6 mb 0.00 in0.0 mm 0.00 in0.0 mm 0.58 in14.7 mm
07:15 PM 61.3°F16.3°C 46.3°F7.9°C 58% 10.5 mph W16.9 kmh W 18.1 mph29.1 kmh 30.11 in1019.6 mb 0.00 in0.0 mm 0.00 in0.0 mm 0.58 in14.7 mm
07:20 PM 61.1°F16.2°C 46.2°F7.9°C 58% 7.7 mph W12.4 kmh W 11.6 mph18.7 kmh 30.11 in1019.6 mb 0.00 in0.0 mm 0.00 in0.0 mm 0.58 in14.7 mm
07:25 PM 60.7°F15.9°C 45.8°F7.7°C 58% 10.5 mph W16.9 kmh W 14.3 mph23.0 kmh 30.11 in1019.6 mb 0.00 in0.0 mm 0.00 in0.0 mm 0.58 in14.7 mm
07:30 PM 60.7°F15.9°C 45.8°F7.7°C 58% 11.0 mph W17.7 kmh W 14.3 mph23.0 kmh 30.11 in1019.6 mb 0.00 in0.0 mm 0.00 in0.0 mm 0.58 in14.7 mm
07:35 PM 60.5°F15.8°C 45.7°F7.6°C 58% 8.9 mph W14.3 kmh W 14.3 mph23.0 kmh 30.11 in1019.6 mb 0.00 in0.0 mm 0.00 in0.0 mm 0.58 in14.7 mm
07:40 PM 60.2°F15.7°C 45.3°F7.4°C 58% 8.8 mph WNW14.2 kmh WNW 14.0 mph22.5 kmh 30.11 in1019.6 mb 0.00 in0.0 mm 0.00 in0.0 mm 0.58 in14.7 mm
07:45 PM 60.2°F15.7°C 45.3°F7.4°C 58% 8.9 mph WNW14.3 kmh WNW 14.0 mph22.5 kmh 30.11 in1019.6 mb 0.00 in0.0 mm 0.00 in0.0 mm 0.58 in14.7 mm
07:50 PM 60.2°F15.7°C 45.3°F7.4°C 58% 8.6 mph WNW13.8 kmh WNW 14.6 mph23.5 kmh 30.11 in1019.6 mb 0.00 in0.0 mm 0.00 in0.0 mm 0.58 in14.7 mm
07:55 PM 60.0°F15.6°C 45.2°F7.3°C 58% 8.8 mph WNW14.2 kmh WNW 14.6 mph23.5 kmh 30.11 in1019.6 mb 0.00 in0.0 mm 0.00 in0.0 mm 0.58 in14.7 mm
08:00 PM 59.8°F15.4°C 45.0°F7.2°C 58% 9.5 mph W15.3 kmh W 14.6 mph23.5 kmh 30.11 in1019.6 mb 0.00 in0.0 mm 0.00 in0.0 mm 0.58 in14.7 mm
08:05 PM 59.6°F15.3°C 44.8°F7.1°C 58% 7.0 mph WNW11.3 kmh WNW 10.7 mph17.2 kmh 30.11 in1019.6 mb 0.00 in0.0 mm 0.00 in0.0 mm 0.58 in14.7 mm
08:10 PM 59.5°F15.3°C 44.7°F7.1°C 58% 6.4 mph WNW10.3 kmh WNW 10.1 mph16.3 kmh 30.11 in1019.6 mb 0.00 in0.0 mm 0.00 in0.0 mm 0.58 in14.7 mm
08:15 PM 59.5°F15.3°C 44.7°F7.1°C 58% 6.5 mph W10.5 kmh W 8.0 mph12.9 kmh 30.11 in1019.6 mb 0.00 in0.0 mm 0.00 in0.0 mm 0.58 in14.7 mm
08:20 PM 59.3°F15.2°C 44.5°F6.9°C 58% 6.5 mph W10.5 kmh W 8.6 mph13.8 kmh 30.11 in1019.6 mb 0.00 in0.0 mm 0.00 in0.0 mm 0.58 in14.7 mm
08:25 PM 59.1°F15.1°C 44.3°F6.8°C 58% 5.6 mph NW9.0 kmh NW 8.6 mph13.8 kmh 30.11 in1019.6 mb 0.00 in0.0 mm 0.00 in0.0 mm 0.58 in14.7 mm
08:30 PM 59.1°F15.1°C 44.8°F7.1°C 59% 6.0 mph WNW9.7 kmh WNW 8.6 mph13.8 kmh 30.11 in1019.6 mb 0.00 in0.0 mm 0.00 in0.0 mm 0.58 in14.7 mm
08:35 PM 58.9°F14.9°C 44.6°F7.0°C 59% 5.5 mph WNW8.9 kmh WNW 8.6 mph13.8 kmh 30.11 in1019.6 mb 0.00 in0.0 mm 0.00 in0.0 mm 0.58 in14.7 mm
08:40 PM 58.7°F14.8°C 44.4°F6.9°C 59% 4.2 mph WNW6.8 kmh WNW 5.7 mph9.2 kmh 30.11 in1019.6 mb 0.00 in0.0 mm 0.00 in0.0 mm 0.58 in14.7 mm
08:45 PM 58.5°F14.7°C 44.3°F6.8°C 59% 4.0 mph WNW6.4 kmh WNW 5.4 mph8.7 kmh 30.11 in1019.6 mb 0.00 in0.0 mm 0.00 in0.0 mm 0.58 in14.7 mm
08:50 PM 58.4°F14.7°C 44.1°F6.7°C 59% 3.7 mph NW6.0 kmh NW 5.4 mph8.7 kmh 30.11 in1019.6 mb 0.00 in0.0 mm 0.00 in0.0 mm 0.58 in14.7 mm
08:55 PM 58.4°F14.7°C 44.1°F6.7°C 59% 3.8 mph NW6.1 kmh NW 5.7 mph9.2 kmh 30.11 in1019.6 mb 0.00 in0.0 mm 0.00 in0.0 mm 0.58 in14.7 mm
09:00 PM 58.2°F14.6°C 43.9°F6.6°C 59% 4.4 mph NW7.1 kmh NW 6.0 mph9.7 kmh 30.11 in1019.6 mb 0.00 in0.0 mm 0.00 in0.0 mm 0.58 in14.7 mm
09:05 PM 58.0°F14.4°C 43.8°F6.6°C 59% 4.3 mph NW6.9 kmh NW 6.0 mph9.7 kmh 30.11 in1019.6 mb 0.00 in0.0 mm 0.00 in0.0 mm 0.58 in14.7 mm
09:10 PM 58.0°F14.4°C 43.8°F6.6°C 59% 2.9 mph NW4.7 kmh NW 4.5 mph7.2 kmh 30.11 in1019.6 mb 0.00 in0.0 mm 0.00 in0.0 mm 0.58 in14.7 mm
09:15 PM 57.8°F14.3°C 43.6°F6.4°C 59% 2.5 mph NW4.0 kmh NW 4.5 mph7.2 kmh 30.11 in1019.6 mb 0.00 in0.0 mm 0.00 in0.0 mm 0.58 in14.7 mm
09:20 PM 57.5°F14.2°C 43.2°F6.2°C 59% 3.1 mph NW5.0 kmh NW 3.9 mph6.3 kmh 30.11 in1019.6 mb 0.00 in0.0 mm 0.00 in0.0 mm 0.58 in14.7 mm
09:25 PM 57.3°F14.1°C 43.1°F6.2°C 59% 1.7 mph NW2.7 kmh NW 3.9 mph6.3 kmh 30.11 in1019.6 mb 0.00 in0.0 mm 0.00 in0.0 mm 0.58 in14.7 mm
09:30 PM 56.9°F13.8°C 42.7°F5.9°C 59% 0.2 mph NW0.3 kmh NW 1.2 mph1.9 kmh 30.11 in1019.6 mb 0.00 in0.0 mm 0.00 in0.0 mm 0.58 in14.7 mm
09:35 PM 56.6°F13.7°C 42.8°F6.0°C 60% 0.3 mph NW0.5 kmh NW 2.7 mph4.3 kmh 30.11 in1019.6 mb 0.00 in0.0 mm 0.00 in0.0 mm 0.58 in14.7 mm
09:40 PM 56.2°F13.4°C 42.5°F5.8°C 60% 1.4 mph NW2.3 kmh NW 3.6 mph5.8 kmh 30.11 in1019.6 mb 0.00 in0.0 mm 0.00 in0.0 mm 0.58 in14.7 mm
09:45 PM 56.0°F13.3°C 42.3°F5.7°C 60% 2.2 mph NW3.5 kmh NW 3.6 mph5.8 kmh 30.11 in1019.6 mb 0.00 in0.0 mm 0.00 in0.0 mm 0.58 in14.7 mm
09:50 PM 55.7°F13.2°C 42.4°F5.8°C 61% 1.2 mph NW1.9 kmh NW 3.6 mph5.8 kmh 30.11 in1019.6 mb 0.00 in0.0 mm 0.00 in0.0 mm 0.58 in14.7 mm
09:55 PM 55.5°F13.1°C 42.3°F5.7°C 61% 0.5 mph NNW0.8 kmh NNW 3.3 mph5.3 kmh 30.11 in1019.6 mb 0.00 in0.0 mm 0.00 in0.0 mm 0.58 in14.7 mm
10:00 PM 55.3°F12.9°C 42.1°F5.6°C 61% 0.6 mph NW1.0 kmh NW 1.8 mph2.9 kmh 30.11 in1019.6 mb 0.00 in0.0 mm 0.00 in0.0 mm 0.58 in14.7 mm
10:05 PM 55.0°F12.8°C 42.2°F5.7°C 62% 1.0 mph NW1.6 kmh NW 3.3 mph5.3 kmh 30.14 in1020.7 mb 0.00 in0.0 mm 0.00 in0.0 mm 0.58 in14.7 mm
10:10 PM 54.8°F12.7°C 42.0°F5.6°C 62% 1.7 mph NW2.7 kmh NW 3.9 mph6.3 kmh 30.14 in1020.7 mb 0.00 in0.0 mm 0.00 in0.0 mm 0.58 in14.7 mm
10:15 PM 54.8°F12.7°C 42.0°F5.6°C 62% 1.5 mph NW2.4 kmh NW 3.9 mph6.3 kmh 30.14 in1020.7 mb 0.00 in0.0 mm 0.00 in0.0 mm 0.58 in14.7 mm
10:20 PM 54.6°F12.6°C 42.2°F5.7°C 63% 0.8 mph NW1.3 kmh NW 3.0 mph4.8 kmh 30.14 in1020.7 mb 0.00 in0.0 mm 0.00 in0.0 mm 0.58 in14.7 mm
10:25 PM 54.2°F12.3°C 41.9°F5.5°C 63% 0.5 mph NW0.8 kmh NW 3.0 mph4.8 kmh 30.14 in1020.7 mb 0.00 in0.0 mm 0.00 in0.0 mm 0.58 in14.7 mm
10:30 PM 53.9°F12.2°C 42.0°F5.6°C 64% Calm Calm -- 30.14 in1020.7 mb 0.00 in0.0 mm 0.00 in0.0 mm 0.58 in14.7 mm
10:35 PM 53.3°F11.8°C 41.5°F5.3°C 64% Calm Calm -- 30.14 in1020.7 mb 0.00 in0.0 mm 0.00 in0.0 mm 0.58 in14.7 mm
10:40 PM 53.2°F11.8°C 41.3°F5.2°C 64% 0.3 mph NW0.5 kmh NW 1.8 mph2.9 kmh 30.14 in1020.7 mb 0.00 in0.0 mm 0.00 in0.0 mm 0.58 in14.7 mm
10:45 PM 53.2°F11.8°C 41.3°F5.2°C 64% 0.3 mph NW0.5 kmh NW 1.8 mph2.9 kmh 30.14 in1020.7 mb 0.00 in0.0 mm 0.00 in0.0 mm 0.58 in14.7 mm
10:50 PM 52.6°F11.4°C 41.2°F5.1°C 65% 0.9 mph NW1.4 kmh NW 2.7 mph4.3 kmh 30.14 in1020.7 mb 0.00 in0.0 mm 0.00 in0.0 mm 0.58 in14.7 mm
10:55 PM 52.6°F11.4°C 41.6°F5.3°C 66% 2.1 mph WNW3.4 kmh WNW 3.3 mph5.3 kmh 30.14 in1020.7 mb 0.00 in0.0 mm 0.00 in0.0 mm 0.58 in14.7 mm
11:00 PM 52.6°F11.4°C 42.0°F5.6°C 67% 2.2 mph NW3.5 kmh NW 3.3 mph5.3 kmh 30.14 in1020.7 mb 0.00 in0.0 mm 0.00 in0.0 mm 0.46 in11.7 mm
11:05 PM 52.6°F11.4°C 42.0°F5.6°C 67% 1.4 mph NW2.3 kmh NW 3.0 mph4.8 kmh 30.14 in1020.7 mb 0.00 in0.0 mm 0.00 in0.0 mm 0.46 in11.7 mm
11:10 PM 52.6°F11.4°C 42.0°F5.6°C 67% 0.9 mph NW1.4 kmh NW 3.9 mph6.3 kmh 30.14 in1020.7 mb 0.00 in0.0 mm 0.00 in0.0 mm 0.46 in11.7 mm
11:15 PM 52.6°F11.4°C 42.0°F5.6°C 67% 1.1 mph NW1.8 kmh NW 3.9 mph6.3 kmh 30.14 in1020.7 mb 0.00 in0.0 mm 0.00 in0.0 mm 0.46 in11.7 mm
11:20 PM 52.6°F11.4°C 42.3°F5.7°C 68% 0.8 mph NW1.3 kmh NW 3.3 mph5.3 kmh 30.14 in1020.7 mb 0.00 in0.0 mm 0.00 in0.0 mm 0.46 in11.7 mm
11:25 PM 52.6°F11.4°C 42.3°F5.7°C 68% 1.2 mph NNW1.9 kmh NNW 2.7 mph4.3 kmh 30.14 in1020.7 mb 0.00 in0.0 mm 0.00 in0.0 mm 0.46 in11.7 mm
11:30 PM 52.4°F11.3°C 42.2°F5.7°C 68% 0.7 mph NNW1.1 kmh NNW 2.7 mph4.3 kmh 30.14 in1020.7 mb 0.00 in0.0 mm 0.00 in0.0 mm 0.46 in11.7 mm
11:35 PM 52.3°F11.3°C 42.0°F5.6°C 68% 0.3 mph ESE0.5 kmh ESE 2.1 mph3.4 kmh 30.14 in1020.7 mb 0.00 in0.0 mm 0.00 in0.0 mm 0.46 in11.7 mm
11:40 PM 52.3°F11.3°C 42.4°F5.8°C 69% 0.4 mph ESE0.6 kmh ESE 2.1 mph3.4 kmh 30.14 in1020.7 mb 0.00 in0.0 mm 0.00 in0.0 mm 0.46 in11.7 mm
11:45 PM 51.9°F11.1°C 42.0°F5.6°C 69% Calm Calm -- 30.14 in1020.7 mb 0.00 in0.0 mm 0.00 in0.0 mm 0.46 in11.7 mm
11:50 PM 51.5°F10.8°C 41.7°F5.4°C 69% 0.2 mph E0.3 kmh E 1.2 mph1.9 kmh 30.14 in1020.7 mb 0.00 in0.0 mm 0.00 in0.0 mm 0.46 in11.7 mm
11:55 PM 51.2°F10.7°C 41.3°F5.2°C 69% 0.2 mph E0.3 kmh E 1.2 mph1.9 kmh 30.14 in1020.7 mb 0.00 in0.0 mm 0.00 in0.0 mm 0.46 in11.7 mm